Western King — CY7367 — position and weather

sailwx.info

Track history (hours):
 
Tides and Currents Weather Stations Pressure Air Temp Water Temp Dewpoint Dewpoint Depression Visibility Wind Speed Wind Dir Waves Ship Positions

Western King

Last reported at 2014-Sep-16 14:34 UTC. Time now 2014-Sep-16 15:32 UTC.
Position N 49°08' W 123°19'.

Length 23 m; draft 3.8 m.

Type: Fishing. MMSI: 316003779.

Date/timePositionNaut miles runAvg speedWind from/ knotsBaromVisibWave heightAir tempDewpointWater temp
2014-Sep-16 14:34N 49°08' W 123°19'1 0.9
2014-Sep-16 13:33N 49°07' W 123°20'6 5.9
2014-Sep-16 12:33N 49°07' W 123°11'0 0.0
2014-Sep-16 11:33N 49°07' W 123°11'0 0.0
2014-Sep-16 10:33N 49°07' W 123°11'0 0.0
2014-Sep-16 09:33N 49°07' W 123°11'0 0.0
2014-Sep-16 08:33N 49°07' W 123°11'0 0.0
2014-Sep-16 07:33N 49°07' W 123°11'0 0.0
2014-Sep-16 06:33N 49°07' W 123°11'0 0.0
2014-Sep-16 05:33N 49°07' W 123°11'0 0.0
2014-Sep-16 04:33N 49°07' W 123°11'0 0.0
2014-Sep-16 03:33N 49°07' W 123°11'0 0.0
2014-Sep-16 02:33N 49°07' W 123°11'0 0.0
2014-Sep-16 01:33N 49°07' W 123°11'0 0.0
2014-Sep-16 00:33N 49°07' W 123°11'0 0.0
2014-Sep-15 23:33N 49°07' W 123°11'0 0.0
2014-Sep-15 22:33N 49°07' W 123°11'0 0.0
2014-Sep-15 21:33N 49°07' W 123°11'1 0.9
2014-Sep-15 20:33N 49°07' W 123°10'0 0.0
2014-Sep-15 19:33N 49°07' W 123°10'4 4.1
2014-Sep-15 18:33N 49°07' W 123°16'2 2.3
2014-Sep-15 17:34N 49°06' W 123°19'1 1.2
2014-Sep-15 16:33N 49°07' W 123°20'6 5.9
2014-Sep-15 15:33N 49°02' W 123°15'1 1.4
2014-Sep-15 14:34N 49°01' W 123°13'7 6.8
2014-Sep-15 13:33N 49°06' W 123°20'9 9.0
2014-Sep-15 12:33N 49°12' W 123°30'9 9.2
2014-Sep-15 11:33N 49°18' W 123°41'9 9.0
2014-Sep-15 10:33N 49°22' W 123°53'9 9.0
2014-Sep-15 09:33N 49°27' W 124°05'9 8.9
2014-Sep-15 08:33N 49°32' W 124°16'9 8.7
2014-Sep-15 07:33N 49°36' W 124°28'9 8.9
2014-Sep-15 06:33N 49°42' W 124°39'9 8.8
2014-Sep-15 05:33N 49°48' W 124°49'9 8.6
2014-Sep-15 04:33N 49°53' W 124°59'9 9.0
2014-Sep-15 03:32N 49°58' W 125°11'9 0.4
2014-Sep-14 02:05N 50°07' W 125°18'5 9.0
2014-Sep-14 01:32N 50°11' W 125°21'0 0.0
2014-Sep-13 21:31N 50°11' W 125°20'  
2014-Sep-07 07:05N 49°37' W 124°41'6 9.0
2014-Sep-07 06:28N 49°33' W 124°35'8 8.7
2014-Sep-07 05:33N 49°27' W 124°28'6 0.6
2014-Sep-06 18:27N 49°32' W 124°23'5 2.5
2014-Sep-06 16:18N 49°32' W 124°14'2 2.2
2014-Sep-06 15:27N 49°33' W 124°17'  
Track history (hours):
 
Tides and Currents Weather Stations Pressure Air Temp Water Temp Dewpoint Dewpoint Depression Visibility Wind Speed Wind Dir Waves Ship Positions

Western King

Last reported at 2014-Sep-16 14:34 UTC. Time now 2014-Sep-16 15:32 UTC.
Position N 49°08' W 123°19'.

Length 23 m; draft 3.8 m.

Type: Fishing. MMSI: 316003779.

Date/timePositionNaut miles runAvg speedWind from/ knotsBaromVisibWave heightAir tempDewpointWater temp
2014-Sep-16 14:34N 49°08' W 123°19'1 0.9
2014-Sep-16 13:33N 49°07' W 123°20'6 5.9
2014-Sep-16 12:33N 49°07' W 123°11'0 0.0
2014-Sep-16 11:33N 49°07' W 123°11'0 0.0
2014-Sep-16 10:33N 49°07' W 123°11'0 0.0
2014-Sep-16 09:33N 49°07' W 123°11'0 0.0
2014-Sep-16 08:33N 49°07' W 123°11'0 0.0
2014-Sep-16 07:33N 49°07' W 123°11'0 0.0
2014-Sep-16 06:33N 49°07' W 123°11'0 0.0
2014-Sep-16 05:33N 49°07' W 123°11'0 0.0
2014-Sep-16 04:33N 49°07' W 123°11'0 0.0
2014-Sep-16 03:33N 49°07' W 123°11'0 0.0
2014-Sep-16 02:33N 49°07' W 123°11'0 0.0
2014-Sep-16 01:33N 49°07' W 123°11'0 0.0
2014-Sep-16 00:33N 49°07' W 123°11'0 0.0
2014-Sep-15 23:33N 49°07' W 123°11'0 0.0
2014-Sep-15 22:33N 49°07' W 123°11'0 0.0
2014-Sep-15 21:33N 49°07' W 123°11'1 0.9
2014-Sep-15 20:33N 49°07' W 123°10'0 0.0
2014-Sep-15 19:33N 49°07' W 123°10'4 4.1
2014-Sep-15 18:33N 49°07' W 123°16'2 2.3
2014-Sep-15 17:34N 49°06' W 123°19'1 1.2
2014-Sep-15 16:33N 49°07' W 123°20'6 5.9
2014-Sep-15 15:33N 49°02' W 123°15'1 1.4
2014-Sep-15 14:34N 49°01' W 123°13'7 6.8
2014-Sep-15 13:33N 49°06' W 123°20'9 9.0
2014-Sep-15 12:33N 49°12' W 123°30'9 9.2
2014-Sep-15 11:33N 49°18' W 123°41'9 9.0
2014-Sep-15 10:33N 49°22' W 123°53'9 9.0
2014-Sep-15 09:33N 49°27' W 124°05'9 8.9
2014-Sep-15 08:33N 49°32' W 124°16'9 8.7
2014-Sep-15 07:33N 49°36' W 124°28'9 8.9
2014-Sep-15 06:33N 49°42' W 124°39'9 8.8
2014-Sep-15 05:33N 49°48' W 124°49'9 8.6
2014-Sep-15 04:33N 49°53' W 124°59'9 9.0
2014-Sep-15 03:32N 49°58' W 125°11'9 0.4
2014-Sep-14 02:05N 50°07' W 125°18'5 9.0
2014-Sep-14 01:32N 50°11' W 125°21'0 0.0
2014-Sep-13 21:31N 50°11' W 125°20'  
2014-Sep-07 07:05N 49°37' W 124°41'6 9.0
2014-Sep-07 06:28N 49°33' W 124°35'8 8.7
2014-Sep-07 05:33N 49°27' W 124°28'6 0.6
2014-Sep-06 18:27N 49°32' W 124°23'5 2.5
2014-Sep-06 16:18N 49°32' W 124°14'2 2.2
2014-Sep-06 15:27N 49°33' W 124°17'  

Dump ship's entire track history